createdAt,value
2023-03-26T00:08:37.244Z,5.60
2023-03-26T00:22:37.241Z,5.40
2023-03-26T00:36:37.240Z,4.70
2023-03-26T00:50:37.235Z,4.50
2023-03-26T01:04:37.486Z,4.10
2023-03-26T01:18:37.270Z,3.90
2023-03-26T01:32:37.340Z,3.90
2023-03-26T01:46:37.318Z,3.50
2023-03-26T02:00:37.319Z,3.40
2023-03-26T02:14:37.347Z,3.20
2023-03-26T02:28:37.362Z,3.10
2023-03-26T02:42:37.367Z,2.70
2023-03-26T02:56:37.381Z,2.70
2023-03-26T03:10:37.385Z,2.50
2023-03-26T03:24:37.412Z,2.20
2023-03-26T03:38:37.427Z,2.30
2023-03-26T03:52:37.416Z,2.00
2023-03-26T04:06:37.435Z,2.00
2023-03-26T04:20:37.458Z,2.05
2023-03-26T04:34:37.463Z,1.75
2023-03-26T04:48:37.519Z,1.85
2023-03-26T05:03:37.488Z,1.65
2023-03-26T05:18:37.501Z,1.70
2023-03-26T05:33:37.591Z,1.60
2023-03-26T05:48:37.535Z,1.60
2023-03-26T06:03:37.631Z,1.50
2023-03-26T06:18:37.602Z,1.70
2023-03-26T06:33:37.604Z,1.80
2023-03-26T06:48:37.584Z,1.70
2023-03-26T07:03:37.630Z,1.70
2023-03-26T07:18:37.630Z,1.60
2023-03-26T07:33:37.668Z,1.70
2023-03-26T07:48:37.654Z,1.90
2023-03-26T08:03:37.847Z,1.80
2023-03-26T08:18:37.700Z,1.60
2023-03-26T08:33:38.451Z,1.50
2023-03-26T08:48:37.750Z,1.50
2023-03-26T09:03:37.799Z,5.15
2023-03-26T09:18:37.783Z,5.10
2023-03-26T09:33:37.823Z,4.60
2023-03-26T09:48:37.823Z,4.50
2023-03-26T10:03:37.841Z,4.10
2023-03-26T10:18:37.862Z,4.30
2023-03-26T10:33:37.894Z,4.40
2023-03-26T10:49:37.926Z,4.20
2023-03-26T11:04:37.974Z,4.30
2023-03-26T11:20:37.985Z,4.00
2023-03-26T11:35:40.055Z,3.50
2023-03-26T11:50:37.978Z,3.10
2023-03-26T12:05:37.983Z,3.30
2023-03-26T12:20:37.989Z,3.10
2023-03-26T12:35:38.026Z,2.90
2023-03-26T12:50:38.022Z,2.80
2023-03-26T13:05:37.996Z,2.40
2023-03-26T13:20:38.028Z,2.40
2023-03-26T13:35:38.084Z,2.30
2023-03-26T13:50:38.072Z,2.10
2023-03-26T14:06:38.075Z,2.30
2023-03-26T14:21:38.108Z,2.30
2023-03-26T14:36:38.122Z,2.10
2023-03-26T14:51:38.120Z,2.10
2023-03-26T15:06:38.140Z,2.30
2023-03-26T15:21:38.124Z,2.50
2023-03-26T15:36:38.150Z,2.70
2023-03-26T15:51:46.853Z,2.55
2023-03-26T16:07:38.147Z,2.30
2023-03-26T16:22:42.473Z,4.30
2023-03-26T16:37:38.181Z,3.30
2023-03-26T16:52:38.518Z,16.30
2023-03-26T17:07:38.170Z,48.60
2023-03-26T17:22:38.209Z,47.30
2023-03-26T17:37:38.197Z,45.00
2023-03-26T17:51:38.205Z,43.60
2023-03-26T18:05:38.198Z,40.80
2023-03-26T18:19:38.204Z,38.60
2023-03-26T18:33:38.210Z,35.60
2023-03-26T18:47:38.333Z,34.40
2023-03-26T19:01:38.243Z,32.20
2023-03-26T19:15:38.224Z,30.00
2023-03-26T19:29:38.258Z,28.80
2023-03-26T19:43:38.332Z,27.40
2023-03-26T19:57:38.291Z,25.60
2023-03-26T20:11:38.272Z,24.20
2023-03-26T20:25:38.282Z,22.20
2023-03-26T20:39:38.274Z,20.20
2023-03-26T20:53:38.290Z,19.50
2023-03-26T21:07:38.303Z,17.60
2023-03-26T21:21:38.303Z,16.40
2023-03-26T21:35:38.373Z,14.70
2023-03-26T21:49:38.308Z,13.90
2023-03-26T22:03:38.428Z,12.70
2023-03-26T22:17:38.373Z,11.50
2023-03-26T22:31:38.363Z,10.80
2023-03-26T22:45:38.370Z,10.00
2023-03-26T22:59:38.351Z,9.30
2023-03-26T23:13:38.446Z,9.00
2023-03-26T23:27:38.381Z,8.30
2023-03-26T23:41:38.367Z,7.80
2023-03-26T23:55:38.415Z,7.00
